Riverdale, MD (20737)

11:51 AM EDT on October 24, 2014 (GMT -0400)
Riverdale Park | Change Station
CLOSE
Current Station
Personal Weather Station
Location: Riverdale, MD
Elevation: 52 ft
Nearby Weather Stations

Elev 52 ft 38.96 °N, 76.94 °W | Updated 3 seconds ago

Clear
Clear
60.4 °F
Feels Like 60.4 °F
N
11.0
Wind Variable Wind from NNW
Gusts 20.0 mph

Today
High -- | Low -- °F
--% Chance of Precip.
Yesterday
High -- | Low -- °F
Precip. -- in
7:26 AM 6:16 PM
New Moon, 1% visible
Pressure 29.96 in
Visibility 10.0 miles
Clouds Clear
Dew Point 45 °F
Humidity 56%
Rainfall 0.00 in
Snow Depth Not available.
UV 4 out of 12
Pollen 2.60 out of 12
Air Quality Not available.
Flu Activity Sporadic
METAR KCGS 241535Z AUTO 31009G16KT 10SM CLR 16/06 A2996 RMK AO1

More Conditions Fewer Conditions

Pressure 29.96 in
Visibility 10.0 miles
Clouds Clear
Dew Point 45 °F
Humidity 56%
Rainfall 0.00 in
Snow Depth Not available.
UV 4 out of 12
Pollen 2.60 out of 12
Air Quality Not available.
Flu Activity Sporadic
METAR KCGS 241535Z AUTO 31009G16KT 10SM CLR 16/06 A2996 RMK AO1

More Conditions Fewer Conditions

10-Day Weather Forecast

Almanac

Astronomy

Oct. 24, 2014 Rise Set
Actual Time 7:26 AM EDT 6:16 PM EDT
Civil Twilight 6:59 AM EDT 6:43 PM EDT
Nautical Twilight 6:27 AM EDT 7:15 PM EDT
Astronomical Twilight 5:56 AM EDT 7:46 PM EDT
Moon 8:02 AM EDT 6:55 PM EDT
Length of Visible Light 11h 44m
Length of Day
10h 50m
Tomorrow will be 2m 21s shorter.
New Moon, 1% of the Moon is Illuminated
Today
New Moon
Oct 30
First Quarter
Nov 6
Full
Nov 14
Last Quarter
Nov 22
New

Today's Extremes

State Highs State Lows

Community

WunderPhotos

Upload Photos

1,764,590 photos uploaded!

WunderBlogs® & News

Nearby

Snow Depth

Station Depth Elevation
No new snow has been reported.

Earthquake Activity

City Distance Mag. Time & Date
No recent earthquake activity has been reported nearby.
Minimum magnitude displayed is 2.5.

Coastal Water Temperatures

Place Temperature
Washington, DC 61.0 °F
Baltimore, MD 64.0 °F
Solomons Island, MD 64.0 °F

Nearby Weather Stations